Am Tubarao — A8ZA9 — position and weather

sailwx.info

Track history (hours):
 
Tides and Currents Weather Stations Pressure Air Temp Water Temp Dewpoint Dewpoint Depression Visibility Wind Speed Wind Dir Waves Ship Positions

Am Tubarao

Last reported at 2017-Sep-29 10:15 UTC. Time now 2017-Oct-18 00:29 UTC.
Position N 49°48' W 004°11'.
Warning: this ship's position is 18 days out of date.

Length 230 m; draft 9.5 m.

Type: Cargo ship. MMSI: 636015171.

Date/timePositionNaut miles runAvg speedWind from/ knotsBaromVisibWave heightAir tempDewpointWater temp
2017-Sep-29 10:15N 49°48' W 004°11'2 7.7
2017-Sep-29 10:00N 49°48' W 004°08'20 8.4
2017-Sep-29 07:35N 49°51' W 003°37'1 9.2
2017-Sep-29 07:30N 49°52' W 003°35'5 9.4
2017-Sep-29 07:00N 49°53' W 003°28'5 9.4
2017-Sep-29 06:30N 49°54' W 003°22'5 9.3
2017-Sep-29 06:00N 49°55' W 003°15'5 9.0
2017-Sep-29 05:27N 49°57' W 003°07'4 9.0
2017-Sep-29 05:00N 49°58' W 003°01'4 8.8
2017-Sep-29 04:30N 49°59' W 002°55'4 8.9
2017-Sep-29 04:00N 50°00' W 002°48'4 8.8
2017-Sep-29 03:30N 50°01' W 002°41'22 7.9
2017-Sep-29 00:46N 50°07' W 002°09'2 7.2
2017-Sep-29 00:30N 50°08' W 002°06'4 7.5
2017-Sep-29 00:00N 50°09' W 002°00'4 7.9
2017-Sep-28 23:30N 50°10' W 001°54'4 8.5
2017-Sep-28 23:00N 50°11' W 001°48'4 8.9
2017-Sep-28 22:30N 50°13' W 001°41'5 9.3
2017-Sep-28 22:00N 50°14' W 001°34'5 9.7
2017-Sep-28 21:30N 50°15' W 001°27'510.0
2017-Sep-28 21:00N 50°17' W 001°20'510.5
2017-Sep-28 20:30N 50°18' W 001°11'2910.8
2017-Sep-28 17:49N 50°26' W 000°28'310.1
2017-Sep-28 17:30N 50°27' W 000°23'510.0
2017-Sep-28 17:00N 50°28' W 000°15'5 9.6
2017-Sep-28 16:30N 50°30' W 000°08'5 9.2
2017-Sep-28 15:57N 50°31' W 000°00'4 8.9
2017-Sep-28 15:30N 50°32' E 000°06'4 8.6
2017-Sep-28 15:00N 50°33' E 000°12'4 8.2
2017-Sep-28 14:30N 50°34' E 000°19'4 8.0
2017-Sep-28 13:58N 50°35' E 000°25'4 7.8
2017-Sep-28 13:29N 50°36' E 000°31'4 7.9
2017-Sep-28 13:00N 50°37' E 000°37'4 8.2
2017-Sep-28 12:30N 50°39' E 000°42'4 8.4
2017-Sep-28 12:00N 50°41' E 000°48'4 8.7
2017-Sep-28 11:30N 50°44' E 000°54'4 8.8
2017-Sep-28 11:00N 50°46' E 000°59'5 9.1
2017-Sep-28 10:30N 50°48' E 001°05'5 9.2
2017-Sep-28 10:00N 50°51' E 001°12'5 9.4
2017-Sep-28 09:30N 50°54' E 001°17'5 9.5
2017-Sep-28 09:00N 50°58' E 001°22'5 9.1
2017-Sep-28 08:30N 51°01' E 001°26'4 8.5
2017-Sep-28 08:00N 51°04' E 001°32'4 7.9
2017-Sep-28 07:30N 51°07' E 001°36'4 7.9
2017-Sep-28 07:00N 51°06' E 001°42'510.9
2017-Sep-28 06:30N 51°03' E 001°49'510.9
2017-Sep-28 06:00N 51°03' E 001°58'612.0
2017-Sep-28 05:30N 51°03' E 002°08'611.9
2017-Sep-28 05:00N 51°04' E 002°17'2 4.5
2017-Sep-28 04:30N 51°03' E 002°20'0 0.1
2017-Sep-28 04:00N 51°03' E 002°20'1 1.1
2017-Sep-28 03:30N 51°03' E 002°20'0 0.3
2017-Sep-28 02:39N 51°03' E 002°19'0 0.0
2017-Sep-28 02:30N 51°03' E 002°19'0 0.0
2017-Sep-28 01:51N 51°03' E 002°19'0 0.0
2017-Sep-28 01:27N 51°03' E 002°19'0 0.0
2017-Sep-28 01:00N 51°03' E 002°19'0 0.0
2017-Sep-28 00:30N 51°03' E 002°19'0 0.0
2017-Sep-28 00:00N 51°03' E 002°19'0 0.0
2017-Sep-27 23:30N 51°03' E 002°19'0 0.0
2017-Sep-27 23:00N 51°03' E 002°19'0 0.0
2017-Sep-27 22:30N 51°03' E 002°19'0 0.0
2017-Sep-27 22:00N 51°03' E 002°19'0 0.0
2017-Sep-27 21:27N 51°03' E 002°19'0 0.0
2017-Sep-27 21:00N 51°03' E 002°19'0 0.0
2017-Sep-27 20:30N 51°03' E 002°19'0 0.0
2017-Sep-27 19:57N 51°03' E 002°19'0 0.0
2017-Sep-27 19:27N 51°03' E 002°19'0 0.0
2017-Sep-27 18:54N 51°03' E 002°19'0 0.0
2017-Sep-27 18:30N 51°03' E 002°19'0 0.0
2017-Sep-27 18:00N 51°03' E 002°19'0 0.0
2017-Sep-27 17:21N 51°03' E 002°19'0 0.0
2017-Sep-27 16:57N 51°03' E 002°19'0 0.0
2017-Sep-27 16:27N 51°03' E 002°19'0 0.0
2017-Sep-27 16:00N 51°03' E 002°19'0 0.0
2017-Sep-27 15:30N 51°03' E 002°19'0 0.0
2017-Sep-27 15:00N 51°03' E 002°19'0 0.0
2017-Sep-27 14:30N 51°03' E 002°19'0 0.0
2017-Sep-27 14:00N 51°03' E 002°19'0 0.0
2017-Sep-27 13:30N 51°03' E 002°19'0 0.0
2017-Sep-27 13:00N 51°03' E 002°19'0 0.0
2017-Sep-27 12:27N 51°03' E 002°19'0 0.0
2017-Sep-27 12:00N 51°03' E 002°19'0 0.0
2017-Sep-27 11:30N 51°03' E 002°19'0 0.0
2017-Sep-27 11:00N 51°03' E 002°19'0 0.0
2017-Sep-27 10:30N 51°03' E 002°19'0 0.0
2017-Sep-27 10:00N 51°03' E 002°19'0 0.0
2017-Sep-27 09:30N 51°03' E 002°19'0 0.0
2017-Sep-27 09:00N 51°03' E 002°19'0 0.0
2017-Sep-27 08:30N 51°03' E 002°19'0 0.0
2017-Sep-27 08:00N 51°03' E 002°19'0 0.0
2017-Sep-27 07:30N 51°03' E 002°19'0 0.0
2017-Sep-27 06:57N 51°03' E 002°19'0 0.0
2017-Sep-27 06:30N 51°03' E 002°19'0 0.0
2017-Sep-27 06:00N 51°03' E 002°19'0 0.0
2017-Sep-27 05:24N 51°03' E 002°19'0 0.0
2017-Sep-27 05:00N 51°03' E 002°19'0 0.0
2017-Sep-27 04:30N 51°03' E 002°19'0 0.0
2017-Sep-27 04:00N 51°03' E 002°19'0 0.0
2017-Sep-27 03:12N 51°03' E 002°19'0 0.0
2017-Sep-27 03:00N 51°03' E 002°19'0 0.0
2017-Sep-27 02:27N 51°03' E 002°19'0 0.0
2017-Sep-27 02:00N 51°03' E 002°19'0 0.0
2017-Sep-27 01:30N 51°03' E 002°19'0 0.0
2017-Sep-27 00:57N 51°03' E 002°19'0 0.0
2017-Sep-27 00:30N 51°03' E 002°19'0 0.0
2017-Sep-26 23:57N 51°03' E 002°19'0 0.0
2017-Sep-26 23:30N 51°03' E 002°19'0 0.0
2017-Sep-26 23:00N 51°03' E 002°19'0 0.0
2017-Sep-26 22:27N 51°03' E 002°19'0 0.0
2017-Sep-26 21:54N 51°03' E 002°19'0 0.0
2017-Sep-26 21:30N 51°03' E 002°19'0 0.0
2017-Sep-26 20:57N 51°03' E 002°19'0 0.0
2017-Sep-26 20:30N 51°03' E 002°19'0 0.0
2017-Sep-26 19:54N 51°03' E 002°19'0 0.0
2017-Sep-26 19:30N 51°03' E 002°19'0 0.0
2017-Sep-26 19:00N 51°03' E 002°19'0 0.0
2017-Sep-26 18:27N 51°03' E 002°19'0 0.0
2017-Sep-26 17:54N 51°03' E 002°19'0 0.0
2017-Sep-26 17:30N 51°03' E 002°19'0 0.0
2017-Sep-26 16:54N 51°03' E 002°19'0 0.0
2017-Sep-26 16:30N 51°03' E 002°19'0 0.0
2017-Sep-26 15:57N 51°03' E 002°19'0 0.0
2017-Sep-26 15:27N 51°03' E 002°19'0 0.0
2017-Sep-26 14:57N 51°03' E 002°19'0 0.0
2017-Sep-26 14:30N 51°03' E 002°19'0 0.0
2017-Sep-26 13:57N 51°03' E 002°19'0 0.0
2017-Sep-26 13:30N 51°03' E 002°19'0 0.0
2017-Sep-26 13:00N 51°03' E 002°19'0 0.0
2017-Sep-26 12:30N 51°03' E 002°19'0 0.0
2017-Sep-26 12:00N 51°03' E 002°19'0 0.0
2017-Sep-26 11:30N 51°03' E 002°19'0 0.0
2017-Sep-26 10:51N 51°03' E 002°19'0 0.0
2017-Sep-26 10:30N 51°03' E 002°19'0 0.0
2017-Sep-26 09:57N 51°03' E 002°19'0 0.0
2017-Sep-26 09:30N 51°03' E 002°19'0 0.0
2017-Sep-26 08:57N 51°03' E 002°19'0 0.0
2017-Sep-26 08:30N 51°03' E 002°19'0 0.0
2017-Sep-26 07:54N 51°03' E 002°19'0 0.0
2017-Sep-26 07:30N 51°03' E 002°19'0 0.0
2017-Sep-26 07:00N 51°03' E 002°19'0 0.0
2017-Sep-26 06:24N 51°03' E 002°19'0 0.0
2017-Sep-26 06:00N 51°03' E 002°19'0 0.0
2017-Sep-26 05:30N 51°03' E 002°19'0 0.0
2017-Sep-26 05:00N 51°03' E 002°19'0 0.0
2017-Sep-26 04:30N 51°03' E 002°19'0 0.0
2017-Sep-26 03:57N 51°03' E 002°19'0 0.0
2017-Sep-26 03:30N 51°03' E 002°19'0 0.0
2017-Sep-26 02:48N 51°03' E 002°19'0 0.0
2017-Sep-26 02:30N 51°03' E 002°19'0 0.0
2017-Sep-26 02:00N 51°03' E 002°19'0 0.0
2017-Sep-26 01:30N 51°03' E 002°19'0 0.0
2017-Sep-26 01:00N 51°03' E 002°19'0 0.0
2017-Sep-26 00:30N 51°03' E 002°19'0 0.0
2017-Sep-25 23:54N 51°03' E 002°19'0 0.0
2017-Sep-25 23:24N 51°03' E 002°19'0 0.0
2017-Sep-25 23:00N 51°03' E 002°19'0 0.0
2017-Sep-25 22:30N 51°03' E 002°19'0 0.0
2017-Sep-25 21:48N 51°03' E 002°19'0 0.0
2017-Sep-25 21:30N 51°03' E 002°19'0 0.0
2017-Sep-25 20:57N 51°03' E 002°19'0 0.0
2017-Sep-25 20:30N 51°03' E 002°19'0 0.0
2017-Sep-25 20:00N 51°03' E 002°19'0 0.0
2017-Sep-25 19:27N 51°03' E 002°19'0 0.0
2017-Sep-25 19:00N 51°03' E 002°19'0 0.0
2017-Sep-25 18:31N 51°03' E 002°19'1 1.4
2017-Sep-25 18:00N 51°03' E 002°20'0 0.2
2017-Sep-25 17:30N 51°03' E 002°21'0 0.3
2017-Sep-25 17:01N 51°03' E 002°21'1 1.5
2017-Sep-25 16:30N 51°04' E 002°20'3 6.5
2017-Sep-25 16:00N 51°04' E 002°15'4 7.2
2017-Sep-25 15:30N 51°03' E 002°09'510.7
2017-Sep-25 15:01N 51°03' E 002°01'612.4
2017-Sep-25 14:31N 51°03' E 001°51'2 4.5
2017-Sep-25 14:01N 51°02' E 001°47'0 0.1
2017-Sep-25 13:25N 51°03' E 001°48'0 0.5
2017-Sep-25 12:58N 51°02' E 001°48'0 0.4
2017-Sep-25 12:28N 51°02' E 001°47'0 0.1
2017-Sep-25 11:55N 51°02' E 001°47'0 0.0
2017-Sep-25 11:28N 51°02' E 001°47'0 0.0
2017-Sep-25 10:58N 51°02' E 001°47'0 0.0
2017-Sep-25 10:25N 51°02' E 001°47'0 0.0
2017-Sep-25 09:58N 51°02' E 001°47'0 0.0
2017-Sep-25 09:28N 51°02' E 001°47'0 0.0
2017-Sep-25 08:58N 51°02' E 001°47'0 0.0
2017-Sep-25 08:28N 51°02' E 001°47'0 0.0
2017-Sep-25 07:58N 51°02' E 001°47'0 0.0
2017-Sep-25 07:28N 51°02' E 001°47'0 0.1
2017-Sep-25 06:58N 51°02' E 001°47'0 0.2
2017-Sep-25 06:28N 51°02' E 001°47'0 0.4
2017-Sep-25 05:58N 51°02' E 001°48'0 0.1
2017-Sep-25 05:28N 51°02' E 001°48'0 0.0
2017-Sep-25 04:55N 51°02' E 001°48'0 0.0
2017-Sep-25 04:28N 51°02' E 001°48'0 0.0
2017-Sep-25 03:58N 51°02' E 001°48'0 0.0
2017-Sep-25 03:28N 51°02' E 001°48'0 0.0
2017-Sep-25 02:58N 51°02' E 001°48'0 0.0
2017-Sep-25 02:25N 51°02' E 001°48'0 0.2
2017-Sep-25 01:59N 51°02' E 001°48'1 2.5
2017-Sep-25 01:31N 51°03' E 001°47'4 7.2
2017-Sep-25 01:01N 51°02' E 001°41'5 9.2
2017-Sep-25 00:31N 50°59' E 001°36'3 6.7
2017-Sep-25 00:01N 50°57' E 001°32'5 9.7
2017-Sep-24 23:30N 50°53' E 001°28'5 9.5
2017-Sep-24 23:00N 50°48' E 001°25'5 9.2
2017-Sep-24 22:31N 50°44' E 001°23'5 8.8
2017-Sep-24 21:57N 50°40' E 001°19'4 9.1
2017-Sep-24 21:27N 50°37' E 001°13'11 9.0
2017-Sep-24 20:16N 50°30' E 001°01'2 8.4
2017-Sep-24 20:00N 50°29' E 000°58'5 8.8
2017-Sep-24 19:29N 50°28' E 000°51'11 8.3
2017-Sep-24 18:08N 50°25' E 000°34'1 8.0
2017-Sep-24 18:01N 50°25' E 000°32'4 7.9
2017-Sep-24 17:27N 50°23' E 000°26'4 7.8
2017-Sep-24 17:00N 50°23' E 000°20'4 7.8
2017-Sep-24 16:31N 50°22' E 000°14'4 7.9
2017-Sep-24 16:01N 50°21' E 000°09'4 8.1
2017-Sep-24 15:30N 50°20' E 000°02'4 8.2
2017-Sep-24 15:00N 50°19' W 000°04'4 8.5
2017-Sep-24 14:30N 50°17' W 000°10'4 8.8
2017-Sep-24 14:00N 50°16' W 000°17'5 9.3
2017-Sep-24 13:30N 50°15' W 000°24'6912.0
2017-Sep-24 07:44N 49°58' W 002°08'19 9.5
2017-Sep-24 05:44N 49°53' W 002°37'2 8.4
2017-Sep-24 05:30N 49°53' W 002°40'4 8.2
2017-Sep-24 05:01N 49°52' W 002°46'4 7.9
2017-Sep-24 04:31N 49°51' W 002°52'4 7.7
2017-Sep-24 04:01N 49°50' W 002°58'4 7.7
2017-Sep-24 03:31N 49°49' W 003°03'4 7.8
2017-Sep-24 03:01N 49°48' W 003°09'4 7.7
2017-Sep-24 02:31N 49°47' W 003°15'4 7.9
2017-Sep-24 02:01N 49°46' W 003°21'4 8.0
2017-Sep-24 01:31N 49°45' W 003°27'4 8.2
2017-Sep-24 01:01N 49°44' W 003°33'4 8.3
2017-Sep-24 00:30N 49°43' W 003°39'4 8.5
2017-Sep-24 00:01N 49°42' W 003°46'4 8.6
2017-Sep-23 23:31N 49°41' W 003°52'4 8.9
2017-Sep-23 23:01N 49°40' W 003°59'4 8.9
2017-Sep-23 22:31N 49°39' W 004°06'5 9.4
2017-Sep-23 22:01N 49°39' W 004°13'2410.3
2017-Sep-23 19:43N 49°37' W 004°49'  
Track history (hours):
 
Tides and Currents Weather Stations Pressure Air Temp Water Temp Dewpoint Dewpoint Depression Visibility Wind Speed Wind Dir Waves Ship Positions

Am Tubarao

Last reported at 2017-Sep-29 10:15 UTC. Time now 2017-Oct-18 00:29 UTC.
Position N 49°48' W 004°11'.
Warning: this ship's position is 18 days out of date.

Length 230 m; draft 9.5 m.

Type: Cargo ship. MMSI: 636015171.

Date/timePositionNaut miles runAvg speedWind from/ knotsBaromVisibWave heightAir tempDewpointWater temp
2017-Sep-29 10:15N 49°48' W 004°11'2 7.7
2017-Sep-29 10:00N 49°48' W 004°08'20 8.4
2017-Sep-29 07:35N 49°51' W 003°37'1 9.2
2017-Sep-29 07:30N 49°52' W 003°35'5 9.4
2017-Sep-29 07:00N 49°53' W 003°28'5 9.4
2017-Sep-29 06:30N 49°54' W 003°22'5 9.3
2017-Sep-29 06:00N 49°55' W 003°15'5 9.0
2017-Sep-29 05:27N 49°57' W 003°07'4 9.0
2017-Sep-29 05:00N 49°58' W 003°01'4 8.8
2017-Sep-29 04:30N 49°59' W 002°55'4 8.9
2017-Sep-29 04:00N 50°00' W 002°48'4 8.8
2017-Sep-29 03:30N 50°01' W 002°41'22 7.9
2017-Sep-29 00:46N 50°07' W 002°09'2 7.2
2017-Sep-29 00:30N 50°08' W 002°06'4 7.5
2017-Sep-29 00:00N 50°09' W 002°00'4 7.9
2017-Sep-28 23:30N 50°10' W 001°54'4 8.5
2017-Sep-28 23:00N 50°11' W 001°48'4 8.9
2017-Sep-28 22:30N 50°13' W 001°41'5 9.3
2017-Sep-28 22:00N 50°14' W 001°34'5 9.7
2017-Sep-28 21:30N 50°15' W 001°27'510.0
2017-Sep-28 21:00N 50°17' W 001°20'510.5
2017-Sep-28 20:30N 50°18' W 001°11'2910.8
2017-Sep-28 17:49N 50°26' W 000°28'310.1
2017-Sep-28 17:30N 50°27' W 000°23'510.0
2017-Sep-28 17:00N 50°28' W 000°15'5 9.6
2017-Sep-28 16:30N 50°30' W 000°08'5 9.2
2017-Sep-28 15:57N 50°31' W 000°00'4 8.9
2017-Sep-28 15:30N 50°32' E 000°06'4 8.6
2017-Sep-28 15:00N 50°33' E 000°12'4 8.2
2017-Sep-28 14:30N 50°34' E 000°19'4 8.0
2017-Sep-28 13:58N 50°35' E 000°25'4 7.8
2017-Sep-28 13:29N 50°36' E 000°31'4 7.9
2017-Sep-28 13:00N 50°37' E 000°37'4 8.2
2017-Sep-28 12:30N 50°39' E 000°42'4 8.4
2017-Sep-28 12:00N 50°41' E 000°48'4 8.7
2017-Sep-28 11:30N 50°44' E 000°54'4 8.8
2017-Sep-28 11:00N 50°46' E 000°59'5 9.1
2017-Sep-28 10:30N 50°48' E 001°05'5 9.2
2017-Sep-28 10:00N 50°51' E 001°12'5 9.4
2017-Sep-28 09:30N 50°54' E 001°17'5 9.5
2017-Sep-28 09:00N 50°58' E 001°22'5 9.1
2017-Sep-28 08:30N 51°01' E 001°26'4 8.5
2017-Sep-28 08:00N 51°04' E 001°32'4 7.9
2017-Sep-28 07:30N 51°07' E 001°36'4 7.9
2017-Sep-28 07:00N 51°06' E 001°42'510.9
2017-Sep-28 06:30N 51°03' E 001°49'510.9
2017-Sep-28 06:00N 51°03' E 001°58'612.0
2017-Sep-28 05:30N 51°03' E 002°08'611.9
2017-Sep-28 05:00N 51°04' E 002°17'2 4.5
2017-Sep-28 04:30N 51°03' E 002°20'0 0.1
2017-Sep-28 04:00N 51°03' E 002°20'1 1.1
2017-Sep-28 03:30N 51°03' E 002°20'0 0.3
2017-Sep-28 02:39N 51°03' E 002°19'0 0.0
2017-Sep-28 02:30N 51°03' E 002°19'0 0.0
2017-Sep-28 01:51N 51°03' E 002°19'0 0.0
2017-Sep-28 01:27N 51°03' E 002°19'0 0.0
2017-Sep-28 01:00N 51°03' E 002°19'0 0.0
2017-Sep-28 00:30N 51°03' E 002°19'0 0.0
2017-Sep-28 00:00N 51°03' E 002°19'0 0.0
2017-Sep-27 23:30N 51°03' E 002°19'0 0.0
2017-Sep-27 23:00N 51°03' E 002°19'0 0.0
2017-Sep-27 22:30N 51°03' E 002°19'0 0.0
2017-Sep-27 22:00N 51°03' E 002°19'0 0.0
2017-Sep-27 21:27N 51°03' E 002°19'0 0.0
2017-Sep-27 21:00N 51°03' E 002°19'0 0.0
2017-Sep-27 20:30N 51°03' E 002°19'0 0.0
2017-Sep-27 19:57N 51°03' E 002°19'0 0.0
2017-Sep-27 19:27N 51°03' E 002°19'0 0.0
2017-Sep-27 18:54N 51°03' E 002°19'0 0.0
2017-Sep-27 18:30N 51°03' E 002°19'0 0.0
2017-Sep-27 18:00N 51°03' E 002°19'0 0.0
2017-Sep-27 17:21N 51°03' E 002°19'0 0.0
2017-Sep-27 16:57N 51°03' E 002°19'0 0.0
2017-Sep-27 16:27N 51°03' E 002°19'0 0.0
2017-Sep-27 16:00N 51°03' E 002°19'0 0.0
2017-Sep-27 15:30N 51°03' E 002°19'0 0.0
2017-Sep-27 15:00N 51°03' E 002°19'0 0.0
2017-Sep-27 14:30N 51°03' E 002°19'0 0.0
2017-Sep-27 14:00N 51°03' E 002°19'0 0.0
2017-Sep-27 13:30N 51°03' E 002°19'0 0.0
2017-Sep-27 13:00N 51°03' E 002°19'0 0.0
2017-Sep-27 12:27N 51°03' E 002°19'0 0.0
2017-Sep-27 12:00N 51°03' E 002°19'0 0.0
2017-Sep-27 11:30N 51°03' E 002°19'0 0.0
2017-Sep-27 11:00N 51°03' E 002°19'0 0.0
2017-Sep-27 10:30N 51°03' E 002°19'0 0.0
2017-Sep-27 10:00N 51°03' E 002°19'0 0.0
2017-Sep-27 09:30N 51°03' E 002°19'0 0.0
2017-Sep-27 09:00N 51°03' E 002°19'0 0.0
2017-Sep-27 08:30N 51°03' E 002°19'0 0.0
2017-Sep-27 08:00N 51°03' E 002°19'0 0.0
2017-Sep-27 07:30N 51°03' E 002°19'0 0.0
2017-Sep-27 06:57N 51°03' E 002°19'0 0.0
2017-Sep-27 06:30N 51°03' E 002°19'0 0.0
2017-Sep-27 06:00N 51°03' E 002°19'0 0.0
2017-Sep-27 05:24N 51°03' E 002°19'0 0.0
2017-Sep-27 05:00N 51°03' E 002°19'0 0.0
2017-Sep-27 04:30N 51°03' E 002°19'0 0.0
2017-Sep-27 04:00N 51°03' E 002°19'0 0.0
2017-Sep-27 03:12N 51°03' E 002°19'0 0.0
2017-Sep-27 03:00N 51°03' E 002°19'0 0.0
2017-Sep-27 02:27N 51°03' E 002°19'0 0.0
2017-Sep-27 02:00N 51°03' E 002°19'0 0.0
2017-Sep-27 01:30N 51°03' E 002°19'0 0.0
2017-Sep-27 00:57N 51°03' E 002°19'0 0.0
2017-Sep-27 00:30N 51°03' E 002°19'0 0.0
2017-Sep-26 23:57N 51°03' E 002°19'0 0.0
2017-Sep-26 23:30N 51°03' E 002°19'0 0.0
2017-Sep-26 23:00N 51°03' E 002°19'0 0.0
2017-Sep-26 22:27N 51°03' E 002°19'0 0.0
2017-Sep-26 21:54N 51°03' E 002°19'0 0.0
2017-Sep-26 21:30N 51°03' E 002°19'0 0.0
2017-Sep-26 20:57N 51°03' E 002°19'0 0.0
2017-Sep-26 20:30N 51°03' E 002°19'0 0.0
2017-Sep-26 19:54N 51°03' E 002°19'0 0.0
2017-Sep-26 19:30N 51°03' E 002°19'0 0.0
2017-Sep-26 19:00N 51°03' E 002°19'0 0.0
2017-Sep-26 18:27N 51°03' E 002°19'0 0.0
2017-Sep-26 17:54N 51°03' E 002°19'0 0.0
2017-Sep-26 17:30N 51°03' E 002°19'0 0.0
2017-Sep-26 16:54N 51°03' E 002°19'0 0.0
2017-Sep-26 16:30N 51°03' E 002°19'0 0.0
2017-Sep-26 15:57N 51°03' E 002°19'0 0.0
2017-Sep-26 15:27N 51°03' E 002°19'0 0.0
2017-Sep-26 14:57N 51°03' E 002°19'0 0.0
2017-Sep-26 14:30N 51°03' E 002°19'0 0.0
2017-Sep-26 13:57N 51°03' E 002°19'0 0.0
2017-Sep-26 13:30N 51°03' E 002°19'0 0.0
2017-Sep-26 13:00N 51°03' E 002°19'0 0.0
2017-Sep-26 12:30N 51°03' E 002°19'0 0.0
2017-Sep-26 12:00N 51°03' E 002°19'0 0.0
2017-Sep-26 11:30N 51°03' E 002°19'0 0.0
2017-Sep-26 10:51N 51°03' E 002°19'0 0.0
2017-Sep-26 10:30N 51°03' E 002°19'0 0.0
2017-Sep-26 09:57N 51°03' E 002°19'0 0.0
2017-Sep-26 09:30N 51°03' E 002°19'0 0.0
2017-Sep-26 08:57N 51°03' E 002°19'0 0.0
2017-Sep-26 08:30N 51°03' E 002°19'0 0.0
2017-Sep-26 07:54N 51°03' E 002°19'0 0.0
2017-Sep-26 07:30N 51°03' E 002°19'0 0.0
2017-Sep-26 07:00N 51°03' E 002°19'0 0.0
2017-Sep-26 06:24N 51°03' E 002°19'0 0.0
2017-Sep-26 06:00N 51°03' E 002°19'0 0.0
2017-Sep-26 05:30N 51°03' E 002°19'0 0.0
2017-Sep-26 05:00N 51°03' E 002°19'0 0.0
2017-Sep-26 04:30N 51°03' E 002°19'0 0.0
2017-Sep-26 03:57N 51°03' E 002°19'0 0.0
2017-Sep-26 03:30N 51°03' E 002°19'0 0.0
2017-Sep-26 02:48N 51°03' E 002°19'0 0.0
2017-Sep-26 02:30N 51°03' E 002°19'0 0.0
2017-Sep-26 02:00N 51°03' E 002°19'0 0.0
2017-Sep-26 01:30N 51°03' E 002°19'0 0.0
2017-Sep-26 01:00N 51°03' E 002°19'0 0.0
2017-Sep-26 00:30N 51°03' E 002°19'0 0.0
2017-Sep-25 23:54N 51°03' E 002°19'0 0.0
2017-Sep-25 23:24N 51°03' E 002°19'0 0.0
2017-Sep-25 23:00N 51°03' E 002°19'0 0.0
2017-Sep-25 22:30N 51°03' E 002°19'0 0.0
2017-Sep-25 21:48N 51°03' E 002°19'0 0.0
2017-Sep-25 21:30N 51°03' E 002°19'0 0.0
2017-Sep-25 20:57N 51°03' E 002°19'0 0.0
2017-Sep-25 20:30N 51°03' E 002°19'0 0.0
2017-Sep-25 20:00N 51°03' E 002°19'0 0.0
2017-Sep-25 19:27N 51°03' E 002°19'0 0.0
2017-Sep-25 19:00N 51°03' E 002°19'0 0.0
2017-Sep-25 18:31N 51°03' E 002°19'1 1.4
2017-Sep-25 18:00N 51°03' E 002°20'0 0.2
2017-Sep-25 17:30N 51°03' E 002°21'0 0.3
2017-Sep-25 17:01N 51°03' E 002°21'1 1.5
2017-Sep-25 16:30N 51°04' E 002°20'3 6.5
2017-Sep-25 16:00N 51°04' E 002°15'4 7.2
2017-Sep-25 15:30N 51°03' E 002°09'510.7
2017-Sep-25 15:01N 51°03' E 002°01'612.4
2017-Sep-25 14:31N 51°03' E 001°51'2 4.5
2017-Sep-25 14:01N 51°02' E 001°47'0 0.1
2017-Sep-25 13:25N 51°03' E 001°48'0 0.5
2017-Sep-25 12:58N 51°02' E 001°48'0 0.4
2017-Sep-25 12:28N 51°02' E 001°47'0 0.1
2017-Sep-25 11:55N 51°02' E 001°47'0 0.0
2017-Sep-25 11:28N 51°02' E 001°47'0 0.0
2017-Sep-25 10:58N 51°02' E 001°47'0 0.0
2017-Sep-25 10:25N 51°02' E 001°47'0 0.0
2017-Sep-25 09:58N 51°02' E 001°47'0 0.0
2017-Sep-25 09:28N 51°02' E 001°47'0 0.0
2017-Sep-25 08:58N 51°02' E 001°47'0 0.0
2017-Sep-25 08:28N 51°02' E 001°47'0 0.0
2017-Sep-25 07:58N 51°02' E 001°47'0 0.0
2017-Sep-25 07:28N 51°02' E 001°47'0 0.1
2017-Sep-25 06:58N 51°02' E 001°47'0 0.2
2017-Sep-25 06:28N 51°02' E 001°47'0 0.4
2017-Sep-25 05:58N 51°02' E 001°48'0 0.1
2017-Sep-25 05:28N 51°02' E 001°48'0 0.0
2017-Sep-25 04:55N 51°02' E 001°48'0 0.0
2017-Sep-25 04:28N 51°02' E 001°48'0 0.0
2017-Sep-25 03:58N 51°02' E 001°48'0 0.0
2017-Sep-25 03:28N 51°02' E 001°48'0 0.0
2017-Sep-25 02:58N 51°02' E 001°48'0 0.0
2017-Sep-25 02:25N 51°02' E 001°48'0 0.2
2017-Sep-25 01:59N 51°02' E 001°48'1 2.5
2017-Sep-25 01:31N 51°03' E 001°47'4 7.2
2017-Sep-25 01:01N 51°02' E 001°41'5 9.2
2017-Sep-25 00:31N 50°59' E 001°36'3 6.7
2017-Sep-25 00:01N 50°57' E 001°32'5 9.7
2017-Sep-24 23:30N 50°53' E 001°28'5 9.5
2017-Sep-24 23:00N 50°48' E 001°25'5 9.2
2017-Sep-24 22:31N 50°44' E 001°23'5 8.8
2017-Sep-24 21:57N 50°40' E 001°19'4 9.1
2017-Sep-24 21:27N 50°37' E 001°13'11 9.0
2017-Sep-24 20:16N 50°30' E 001°01'2 8.4
2017-Sep-24 20:00N 50°29' E 000°58'5 8.8
2017-Sep-24 19:29N 50°28' E 000°51'11 8.3
2017-Sep-24 18:08N 50°25' E 000°34'1 8.0
2017-Sep-24 18:01N 50°25' E 000°32'4 7.9
2017-Sep-24 17:27N 50°23' E 000°26'4 7.8
2017-Sep-24 17:00N 50°23' E 000°20'4 7.8
2017-Sep-24 16:31N 50°22' E 000°14'4 7.9
2017-Sep-24 16:01N 50°21' E 000°09'4 8.1
2017-Sep-24 15:30N 50°20' E 000°02'4 8.2
2017-Sep-24 15:00N 50°19' W 000°04'4 8.5
2017-Sep-24 14:30N 50°17' W 000°10'4 8.8
2017-Sep-24 14:00N 50°16' W 000°17'5 9.3
2017-Sep-24 13:30N 50°15' W 000°24'6912.0
2017-Sep-24 07:44N 49°58' W 002°08'19 9.5
2017-Sep-24 05:44N 49°53' W 002°37'2 8.4
2017-Sep-24 05:30N 49°53' W 002°40'4 8.2
2017-Sep-24 05:01N 49°52' W 002°46'4 7.9
2017-Sep-24 04:31N 49°51' W 002°52'4 7.7
2017-Sep-24 04:01N 49°50' W 002°58'4 7.7
2017-Sep-24 03:31N 49°49' W 003°03'4 7.8
2017-Sep-24 03:01N 49°48' W 003°09'4 7.7
2017-Sep-24 02:31N 49°47' W 003°15'4 7.9
2017-Sep-24 02:01N 49°46' W 003°21'4 8.0
2017-Sep-24 01:31N 49°45' W 003°27'4 8.2
2017-Sep-24 01:01N 49°44' W 003°33'4 8.3
2017-Sep-24 00:30N 49°43' W 003°39'4 8.5
2017-Sep-24 00:01N 49°42' W 003°46'4 8.6
2017-Sep-23 23:31N 49°41' W 003°52'4 8.9
2017-Sep-23 23:01N 49°40' W 003°59'4 8.9
2017-Sep-23 22:31N 49°39' W 004°06'5 9.4
2017-Sep-23 22:01N 49°39' W 004°13'2410.3
2017-Sep-23 19:43N 49°37' W 004°49'  

Dump ship's entire track history